Time;durP1;ratioP1;P1;durP2;ratioP2;P2;SDS_P1;SDS_P2;PMS_P1;PMS_P2;Temp;Humidity;BMP_temperature;BMP_pressure;BME280_temperature;BME280_humidity;BME280_pressure;Samples;Min_cycle;Max_cycle;Signal;HPM_P1;HPM_P2
2022/01/23 00:02:11;;;;;;;8.40;7.50;;;4.60;99.90;;;;;;5073038;28;20550;-58
2022/01/23 00:04:40;;;;;;;12.87;7.97;;;4.50;99.90;;;;;;5073259;28;20441;-58
2022/01/23 00:07:11;;;;;;;9.27;7.63;;;4.50;99.90;;;;;;5073699;28;20444;-59
2022/01/23 00:09:39;;;;;;;9.67;7.67;;;4.60;99.90;;;;;;5073819;28;20464;-59
2022/01/23 00:12:11;;;;;;;10.30;8.03;;;4.70;99.90;;;;;;5073189;28;20468;-58
2022/01/23 00:17:24;;;;;;;9.83;7.50;;;4.70;99.90;;;;;;5073207;28;20953;-59
2022/01/23 00:19:54;;;;;;;9.20;6.83;;;4.70;99.90;;;;;;5073106;28;20480;-58
2022/01/23 00:22:24;;;;;;;8.73;6.57;;;4.70;99.90;;;;;;5072957;28;20444;-59
2022/01/23 00:30:27;;;;;;;11.07;7.53;;;4.80;99.90;;;;;;5072854;28;20723;-59
2022/01/23 00:32:55;;;;;;;9.07;7.73;;;4.90;99.90;;;;;;5073447;28;20464;-59
2022/01/23 00:35:24;;;;;;;8.80;6.73;;;4.90;99.90;;;;;;5072805;28;20919;-58
2022/01/23 00:37:52;;;;;;;9.73;6.97;;;5.00;99.90;;;;;;5072782;28;20543;-59
2022/01/23 00:40:20;;;;;;;7.57;6.70;;;5.00;99.90;;;;;;5072678;28;20480;-59
2022/01/23 00:42:48;;;;;;;8.63;7.37;;;4.90;99.90;;;;;;5072892;28;20820;-59
2022/01/23 00:45:30;;;;;;;9.23;7.00;;;5.00;99.90;;;;;;5072925;28;20510;-59
2022/01/23 00:48:02;;;;;;;8.83;7.00;;;5.10;99.90;;;;;;5072996;28;20441;-59
2022/01/23 00:50:33;;;;;;;12.60;8.73;;;5.30;99.90;;;;;;5072682;28;20851;-58
2022/01/23 00:53:01;;;;;;;8.17;6.30;;;5.20;99.90;;;;;;5072764;28;20919;-59
2022/01/23 00:55:28;;;;;;;9.47;7.63;;;5.10;99.90;;;;;;5072482;28;20539;-58
2022/01/23 00:57:55;;;;;;;8.60;6.27;;;5.00;99.90;;;;;;5072584;28;20806;-59
2022/01/23 01:00:23;;;;;;;12.07;8.60;;;5.00;99.90;;;;;;5072944;28;20519;-58
2022/01/23 01:02:50;;;;;;;8.27;6.73;;;5.10;99.90;;;;;;5072340;28;20486;-59
2022/01/23 01:05:18;;;;;;;8.63;6.93;;;5.20;99.90;;;;;;5072522;28;20449;-59
2022/01/23 01:07:46;;;;;;;10.00;7.63;;;5.20;99.90;;;;;;5072557;28;20444;-59
2022/01/23 01:10:21;;;;;;;11.10;6.60;;;5.20;99.90;;;;;;5072756;28;20448;-59
2022/01/23 01:12:50;;;;;;;9.47;7.37;;;5.20;99.90;;;;;;5072559;28;20448;-60
2022/01/23 01:15:54;;;;;;;9.03;6.70;;;5.10;99.90;;;;;;5072297;28;20448;-59
2022/01/23 01:32:10;;;;;;;8.60;7.70;;;5.30;99.90;;;;;;5072466;28;20487;-59
2022/01/23 01:34:41;;;;;;;13.27;7.40;;;5.30;99.90;;;;;;5072327;28;20509;-59
2022/01/23 01:37:10;;;;;;;8.70;6.37;;;5.30;99.90;;;;;;5072555;28;20455;-59
2022/01/23 01:39:39;;;;;;;9.83;7.67;;;5.40;99.90;;;;;;5072063;28;20519;-58
2022/01/23 01:42:07;;;;;;;12.87;7.50;;;5.40;99.90;;;;;;5072245;28;20556;-59
2022/01/23 01:44:34;;;;;;;9.23;8.23;;;5.50;99.90;;;;;;5072230;28;20456;-58
2022/01/23 01:47:01;;;;;;;12.63;8.53;;;5.40;99.90;;;;;;5072377;28;20444;-58
2022/01/23 01:49:31;;;;;;;9.37;7.73;;;5.30;99.90;;;;;;5072030;28;20480;-58
2022/01/23 01:51:59;;;;;;;13.40;9.37;;;5.20;99.90;;;;;;5072205;28;20570;-59
2022/01/23 01:54:28;;;;;;;13.00;9.40;;;5.10;99.90;;;;;;5072349;28;20444;-59
2022/01/23 01:57:05;;;;;;;14.07;9.93;;;5.20;99.90;;;;;;5071862;28;20460;-59
2022/01/23 01:59:47;;;;;;;13.90;9.27;;;5.10;99.90;;;;;;5072047;28;20436;-59
2022/01/23 02:10:30;;;;;;;10.97;8.07;;;5.00;99.90;;;;;;5071878;28;20436;-59
2022/01/23 02:13:12;;;;;;;11.13;9.30;;;5.00;99.90;;;;;;5071806;28;20832;-59
2022/01/23 02:22:30;;;;;;;11.00;9.20;;;5.10;99.90;;;;;;5069369;28;20433;-60
2022/01/23 02:52:03;;;;;;;15.70;9.60;;;4.60;99.90;;;;;;5074673;28;20510;-59
2022/01/23 02:54:54;;;;;;;12.40;9.60;;;4.70;99.90;;;;;;5074694;28;20439;-59
2022/01/23 02:57:35;;;;;;;16.00;9.70;;;4.70;99.90;;;;;;5074616;28;20471;-59
2022/01/23 03:00:10;;;;;;;13.20;8.87;;;4.60;99.90;;;;;;5074445;28;20998;-58
2022/01/23 03:02:42;;;;;;;16.13;10.17;;;4.60;99.90;;;;;;5074350;28;20527;-59
2022/01/23 03:05:12;;;;;;;12.57;9.67;;;4.60;99.90;;;;;;5074779;28;20425;-59
2022/01/23 03:08:02;;;;;;;12.77;8.50;;;4.60;99.90;;;;;;5074545;28;20502;-58
2022/01/23 03:10:35;;;;;;;11.03;8.83;;;4.60;99.90;;;;;;5074845;28;20429;-59
2022/01/23 03:13:39;;;;;;;15.30;10.00;;;4.60;99.90;;;;;;5075009;28;20789;-59
2022/01/23 03:24:05;;;;;;;13.70;8.50;;;4.60;99.90;;;;;;5074588;28;20482;-59
2022/01/23 03:24:47;;;;;;;12.10;8.40;;;4.70;99.90;;;;;;5074186;28;20957;-59
2022/01/23 03:27:47;;;;;;;14.60;8.87;;;4.70;99.90;;;;;;5074284;28;20424;-58
2022/01/23 03:30:22;;;;;;;12.90;9.50;;;4.80;99.90;;;;;;5073427;28;20467;-59
2022/01/23 03:32:50;;;;;;;12.60;9.83;;;4.90;99.90;;;;;;5074503;28;20467;-59
2022/01/23 03:35:20;;;;;;;14.13;10.00;;;5.00;99.90;;;;;;5074215;28;20502;-58
2022/01/23 03:37:48;;;;;;;13.93;10.43;;;5.00;99.90;;;;;;5074182;28;20497;-59
2022/01/23 03:40:16;;;;;;;13.17;8.40;;;5.10;99.90;;;;;;5073973;28;20488;-59
2022/01/23 03:42:46;;;;;;;10.30;9.10;;;5.00;99.90;;;;;;5073828;28;20471;-59
2022/01/23 03:45:36;;;;;;;13.67;9.53;;;5.00;99.90;;;;;;5073837;28;20428;-59
2022/01/23 03:49:31;;;;;;;14.40;10.00;;;5.00;99.90;;;;;;5074025;28;20436;-59
2022/01/23 03:50:49;;;;;;;12.47;9.30;;;5.00;99.90;;;;;;5073587;28;20513;-59
2022/01/23 03:53:16;;;;;;;13.77;9.60;;;5.00;99.90;;;;;;5073703;28;20436;-59
2022/01/23 03:55:44;;;;;;;14.50;10.73;;;5.00;99.90;;;;;;5073309;28;20484;-58
2022/01/23 03:58:12;;;;;;;13.50;10.73;;;5.10;99.90;;;;;;5073835;28;20436;-59
2022/01/23 04:00:39;;;;;;;13.93;9.90;;;5.10;99.90;;;;;;5073057;28;20567;-59
2022/01/23 04:03:07;;;;;;;12.13;9.23;;;5.10;99.90;;;;;;5073120;28;20484;-59
2022/01/23 04:05:35;;;;;;;11.90;9.57;;;5.10;99.90;;;;;;5073224;28;20973;-58
2022/01/23 04:08:03;;;;;;;12.73;10.93;;;5.10;99.90;;;;;;5073283;28;20911;-59
2022/01/23 04:10:31;;;;;;;14.70;10.47;;;5.10;99.90;;;;;;5073415;28;20475;-59
2022/01/23 04:13:09;;;;;;;14.80;10.40;;;5.10;99.90;;;;;;5073142;28;20935;-58
2022/01/23 04:15:44;;;;;;;15.67;11.77;;;5.00;99.90;;;;;;5073557;28;20464;-59
2022/01/23 04:21:18;;;;;;;13.93;10.97;;;5.10;99.90;;;;;;5062240;28;20488;-59
2022/01/23 04:32:19;;;;;;;13.90;11.40;;;4.90;99.90;;;;;;5073287;28;20455;-60
2022/01/23 04:35:04;;;;;;;14.20;10.63;;;4.70;99.90;;;;;;5072946;28;20489;-59
2022/01/23 04:45:51;;;;;;;14.10;10.70;;;4.80;99.90;;;;;;5072886;28;20411;-59
2022/01/23 04:59:40;;;;;;;13.67;9.53;;;4.80;99.90;;;;;;5031045;28;20437;-59
2022/01/23 05:02:25;;;;;;;13.43;9.67;;;4.80;99.90;;;;;;5055799;28;20859;-59
2022/01/23 05:04:53;;;;;;;17.30;12.53;;;5.00;99.90;;;;;;5072533;28;20428;-59
2022/01/23 05:07:26;;;;;;;11.97;9.80;;;5.00;99.90;;;;;;5072747;28;20452;-59
2022/01/23 05:09:53;;;;;;;14.63;10.53;;;5.10;99.90;;;;;;5072451;28;20440;-59
2022/01/23 05:12:24;;;;;;;14.87;10.23;;;5.20;99.90;;;;;;5072753;28;20466;-59
2022/01/23 05:14:52;;;;;;;15.97;10.87;;;5.10;99.90;;;;;;5072670;28;20440;-59
2022/01/23 05:17:19;;;;;;;13.20;9.77;;;5.10;99.90;;;;;;5072274;28;20451;-59
2022/01/23 05:19:47;;;;;;;15.10;11.30;;;5.10;99.90;;;;;;5072733;28;20459;-59
2022/01/23 05:22:24;;;;;;;15.40;11.77;;;5.10;99.90;;;;;;5072111;28;20516;-59
2022/01/23 05:24:55;;;;;;;13.80;10.20;;;5.10;99.90;;;;;;5072580;28;20497;-62
2022/01/23 05:27:23;;;;;;;12.83;10.27;;;5.10;99.90;;;;;;5072474;28;20506;-59
2022/01/23 05:29:51;;;;;;;20.57;10.40;;;5.00;99.90;;;;;;5072393;28;20475;-59
2022/01/23 05:32:20;;;;;;;17.50;11.53;;;5.00;99.90;;;;;;5072582;28;20549;-58
2022/01/23 05:34:48;;;;;;;16.13;11.70;;;5.00;99.90;;;;;;5071916;28;20454;-59
2022/01/23 05:37:17;;;;;;;15.27;11.30;;;5.00;99.90;;;;;;5072217;28;20445;-58
2022/01/23 05:39:44;;;;;;;15.77;10.70;;;5.00;99.90;;;;;;5072446;28;20444;-59
2022/01/23 05:42:12;;;;;;;17.97;12.53;;;5.10;99.90;;;;;;5072120;28;20491;-59
2022/01/23 05:44:40;;;;;;;15.60;12.27;;;5.10;99.90;;;;;;5072305;28;20626;-59
2022/01/23 05:47:09;;;;;;;16.73;11.77;;;5.10;99.90;;;;;;5072435;28;20467;-59
2022/01/23 05:49:37;;;;;;;19.07;12.57;;;5.20;99.90;;;;;;5072230;28;20459;-59
2022/01/23 05:52:06;;;;;;;16.00;12.30;;;5.20;99.90;;;;;;5073007;28;20472;-59
2022/01/23 05:54:35;;;;;;;14.70;11.27;;;5.10;99.90;;;;;;5076263;28;20809;-58
2022/01/23 05:57:02;;;;;;;18.17;12.80;;;5.00;99.90;;;;;;5075807;28;20981;-58
2022/01/23 05:59:30;;;;;;;20.10;13.53;;;5.00;99.90;;;;;;5076009;28;20452;-59
2022/01/23 06:01:57;;;;;;;18.77;12.13;;;4.90;99.90;;;;;;5075649;28;20603;-59
2022/01/23 06:04:25;;;;;;;15.03;11.20;;;4.90;99.90;;;;;;5075950;28;20509;-59
2022/01/23 06:06:53;;;;;;;16.33;12.83;;;4.90;99.90;;;;;;5075863;28;20572;-59
2022/01/23 06:09:21;;;;;;;15.63;12.90;;;4.90;99.90;;;;;;5076031;28;20451;-58
2022/01/23 06:11:50;;;;;;;19.80;11.63;;;4.80;99.90;;;;;;5075961;28;21048;-59
2022/01/23 06:14:17;;;;;;;18.50;12.27;;;5.00;99.90;;;;;;5075514;28;20999;-59
2022/01/23 06:16:45;;;;;;;15.53;12.43;;;5.10;99.90;;;;;;5075706;28;20448;-59
2022/01/23 06:19:12;;;;;;;20.33;13.83;;;5.20;99.90;;;;;;5075543;28;20829;-59
2022/01/23 06:21:39;;;;;;;17.40;11.93;;;5.20;99.90;;;;;;5075508;28;20542;-59
2022/01/23 06:24:09;;;;;;;24.67;12.10;;;5.30;99.90;;;;;;5075336;28;20444;-59
2022/01/23 06:26:44;;;;;;;16.07;13.50;;;5.20;99.90;;;;;;5075673;28;20449;-59
2022/01/23 06:29:18;;;;;;;20.07;13.87;;;5.00;99.90;;;;;;5075658;28;20895;-59
2022/01/23 06:31:47;;;;;;;16.60;11.43;;;4.80;99.90;;;;;;5075509;28;20474;-59
2022/01/23 06:34:16;;;;;;;19.43;13.80;;;4.80;99.90;;;;;;5075169;28;20450;-59
2022/01/23 06:36:44;;;;;;;17.90;12.23;;;4.80;99.90;;;;;;5075148;28;20445;-59
2022/01/23 06:39:13;;;;;;;19.93;14.57;;;4.80;99.90;;;;;;5075032;28;20935;-59
2022/01/23 06:41:41;;;;;;;14.67;12.20;;;4.90;99.90;;;;;;5074796;28;20993;-59
2022/01/23 06:44:10;;;;;;;22.13;14.07;;;4.80;99.90;;;;;;5075038;28;20536;-59
2022/01/23 06:46:39;;;;;;;18.70;13.03;;;4.90;99.90;;;;;;5075239;28;20503;-59
2022/01/23 06:49:07;;;;;;;19.00;13.03;;;4.90;99.90;;;;;;5074830;28;20460;-59
2022/01/23 06:51:34;;;;;;;19.63;12.73;;;5.10;99.90;;;;;;5074721;28;20471;-59
2022/01/23 06:54:01;;;;;;;18.50;13.23;;;5.20;99.90;;;;;;5075128;28;20535;-59
2022/01/23 06:56:28;;;;;;;18.20;12.97;;;5.20;99.90;;;;;;5074868;28;20460;-59
2022/01/23 06:58:56;;;;;;;19.00;14.50;;;5.20;99.90;;;;;;5074955;28;20838;-59
2022/01/23 07:01:23;;;;;;;22.87;15.27;;;5.00;99.90;;;;;;5074454;28;21111;-60
2022/01/23 07:03:52;;;;;;;24.40;17.33;;;4.90;99.90;;;;;;5073889;28;20527;-59
2022/01/23 07:06:19;;;;;;;19.07;15.00;;;5.00;99.90;;;;;;5074847;28;20455;-59
2022/01/23 07:08:46;;;;;;;22.70;13.23;;;5.10;99.90;;;;;;5074656;28;20988;-59
2022/01/23 07:11:13;;;;;;;18.33;13.60;;;5.20;99.90;;;;;;5074796;28;20951;-59
2022/01/23 07:13:40;;;;;;;18.40;14.10;;;5.10;99.90;;;;;;5074602;28;20433;-59
2022/01/23 07:16:07;;;;;;;18.93;13.90;;;5.00;99.90;;;;;;5074569;28;20491;-60
2022/01/23 07:18:35;;;;;;;19.83;13.40;;;5.00;99.90;;;;;;5074313;28;20444;-59
2022/01/23 07:21:03;;;;;;;15.70;11.80;;;4.90;99.90;;;;;;5074090;28;20485;-59
2022/01/23 07:23:30;;;;;;;20.37;14.53;;;5.00;99.90;;;;;;5074361;28;20441;-59
2022/01/23 07:25:59;;;;;;;17.57;12.40;;;4.90;99.90;;;;;;5074166;28;20448;-59
2022/01/23 07:28:36;;;;;;;18.27;13.20;;;4.90;99.90;;;;;;5074462;28;20789;-59
2022/01/23 07:31:05;;;;;;;25.77;14.37;;;4.90;99.90;;;;;;5074036;28;20823;-59
2022/01/23 07:33:35;;;;;;;20.60;13.37;;;4.80;99.90;;;;;;5074155;28;20478;-59
2022/01/23 07:36:04;;;;;;;19.70;15.10;;;4.80;99.90;;;;;;5074370;28;20448;-59
2022/01/23 07:38:32;;;;;;;22.20;14.60;;;4.80;99.90;;;;;;5073924;28;20911;-58
2022/01/23 07:40:59;;;;;;;18.30;13.30;;;4.80;99.90;;;;;;5074186;28;20570;-59
2022/01/23 07:43:26;;;;;;;24.07;13.83;;;4.80;99.90;;;;;;5074221;28;20478;-59
2022/01/23 07:45:54;;;;;;;20.03;13.83;;;4.80;99.90;;;;;;5073703;28;20559;-59
2022/01/23 07:48:21;;;;;;;21.10;14.30;;;4.80;99.90;;;;;;5073871;28;20457;-59
2022/01/23 07:50:48;;;;;;;18.97;13.70;;;4.90;99.90;;;;;;5073639;28;20472;-59
2022/01/23 07:53:16;;;;;;;21.90;15.10;;;4.90;99.90;;;;;;5073879;28;20478;-59
2022/01/23 07:55:44;;;;;;;23.10;15.40;;;5.00;99.90;;;;;;5073556;28;20931;-59
2022/01/23 07:58:14;;;;;;;22.53;15.07;;;5.10;99.90;;;;;;5074291;28;20829;-59
2022/01/23 08:00:42;;;;;;;21.83;14.77;;;5.20;99.90;;;;;;5073653;28;20460;-59
2022/01/23 08:03:09;;;;;;;23.93;16.83;;;5.30;99.90;;;;;;5073325;28;20523;-59
2022/01/23 08:05:37;;;;;;;29.00;17.30;;;5.30;99.90;;;;;;5073758;28;20551;-59
2022/01/23 08:08:04;;;;;;;25.40;16.97;;;5.20;99.90;;;;;;5073609;28;20527;-59
2022/01/23 08:10:33;;;;;;;21.43;16.13;;;5.20;99.90;;;;;;5073573;28;20444;-59
2022/01/23 08:13:03;;;;;;;23.73;15.10;;;5.10;99.90;;;;;;5073646;28;20446;-58
2022/01/23 08:15:30;;;;;;;22.83;15.60;;;5.10;99.90;;;;;;5073173;28;20452;-59
2022/01/23 08:18:00;;;;;;;26.57;17.43;;;5.10;99.90;;;;;;5073461;28;20544;-59
2022/01/23 08:20:28;;;;;;;20.67;16.90;;;5.20;99.90;;;;;;5073061;28;20462;-58
2022/01/23 08:22:57;;;;;;;28.70;16.03;;;5.20;99.90;;;;;;5073232;28;20511;-58
2022/01/23 08:25:25;;;;;;;28.27;15.90;;;5.10;99.90;;;;;;5073389;28;20525;-58
2022/01/23 08:27:53;;;;;;;19.17;15.20;;;5.20;99.90;;;;;;5073294;28;20444;-59
2022/01/23 08:30:20;;;;;;;26.23;18.00;;;5.00;99.90;;;;;;5073003;28;20543;-59
2022/01/23 08:32:48;;;;;;;25.10;15.93;;;5.10;99.90;;;;;;5073365;28;20460;-59
2022/01/23 08:35:15;;;;;;;17.20;13.80;;;5.00;99.90;;;;;;5072746;28;20531;-59
2022/01/23 08:37:43;;;;;;;25.60;15.57;;;5.00;99.90;;;;;;5072917;28;20821;-59
2022/01/23 08:40:19;;;;;;;21.23;16.00;;;5.00;99.90;;;;;;5073144;28;20874;-59
2022/01/23 08:42:47;;;;;;;24.90;18.07;;;5.00;99.90;;;;;;5072787;28;20468;-59
2022/01/23 08:45:15;;;;;;;25.03;16.10;;;5.00;99.90;;;;;;5072658;28;20937;-58
2022/01/23 08:47:47;;;;;;;21.37;16.70;;;5.00;99.90;;;;;;5073150;28;20421;-59
2022/01/23 08:50:15;;;;;;;29.47;18.17;;;5.20;99.90;;;;;;5072991;28;20458;-59
2022/01/23 08:52:42;;;;;;;27.33;18.60;;;5.20;99.90;;;;;;5072704;28;20828;-59
2022/01/23 08:55:10;;;;;;;23.97;17.63;;;5.30;99.90;;;;;;5073044;28;20448;-58
2022/01/23 08:57:37;;;;;;;22.73;16.40;;;5.30;99.90;;;;;;5072693;28;20519;-59
2022/01/23 09:00:06;;;;;;;25.37;19.10;;;5.30;99.90;;;;;;5072555;28;20488;-58
2022/01/23 09:02:34;;;;;;;25.43;18.43;;;5.40;99.90;;;;;;5072513;28;21017;-59
2022/01/23 09:05:02;;;;;;;23.20;17.90;;;5.50;99.90;;;;;;5073232;28;20458;-59
2022/01/23 09:07:29;;;;;;;24.07;17.90;;;5.40;99.90;;;;;;5072823;28;20458;-58
2022/01/23 09:10:01;;;;;;;22.40;16.73;;;5.40;99.90;;;;;;5072691;28;20444;-59
2022/01/23 09:12:43;;;;;;;26.97;17.47;;;5.40;99.90;;;;;;5072838;28;20469;-59
2022/01/23 09:15:11;;;;;;;26.23;17.70;;;5.40;99.90;;;;;;5072609;28;20838;-58
2022/01/23 09:17:39;;;;;;;22.13;17.20;;;5.50;99.90;;;;;;5072393;28;20965;-58
2022/01/23 09:20:07;;;;;;;27.60;18.50;;;5.60;99.90;;;;;;5072315;28;20455;-59
2022/01/23 09:22:34;;;;;;;26.53;16.20;;;5.50;99.90;;;;;;5072253;28;20848;-59
2022/01/23 09:25:02;;;;;;;26.70;19.63;;;5.60;99.90;;;;;;5072412;28;20441;-59
2022/01/23 09:27:29;;;;;;;24.30;18.40;;;5.80;99.90;;;;;;5074152;28;20531;-59
2022/01/23 09:30:05;;;;;;;25.00;17.60;;;5.70;99.90;;;;;;5076510;28;21021;-59
2022/01/23 09:32:33;;;;;;;24.47;17.40;;;5.70;99.90;;;;;;5076779;28;20478;-59
2022/01/23 09:35:01;;;;;;;29.93;19.20;;;5.70;99.90;;;;;;5076602;28;20532;-59
2022/01/23 09:37:29;;;;;;;25.80;17.53;;;5.80;99.90;;;;;;5076227;28;20503;-59
2022/01/23 09:39:58;;;;;;;28.27;17.50;;;5.80;99.90;;;;;;5076172;28;20543;-59
2022/01/23 09:42:33;;;;;;;26.83;18.80;;;5.90;99.90;;;;;;5075821;28;20480;-59
2022/01/23 09:45:04;;;;;;;23.27;15.90;;;5.90;99.90;;;;;;5076042;28;20890;-59
2022/01/23 09:47:32;;;;;;;21.33;15.93;;;6.10;99.90;;;;;;5076050;28;20429;-58
2022/01/23 09:50:03;;;;;;;20.70;15.70;;;6.10;99.90;;;;;;5076362;28;20532;-59
2022/01/23 09:52:33;;;;;;;17.43;12.73;;;6.20;99.90;;;;;;5076106;28;20547;-58
2022/01/23 09:55:07;;;;;;;16.80;13.10;;;6.30;99.90;;;;;;5075827;28;20448;-58
2022/01/23 09:57:36;;;;;;;18.07;14.80;;;6.20;99.90;;;;;;5075952;28;20924;-59
2022/01/23 10:00:07;;;;;;;18.37;12.17;;;6.30;99.90;;;;;;5076254;28;20452;-59
2022/01/23 10:02:34;;;;;;;16.20;12.67;;;6.40;99.90;;;;;;5075384;28;20496;-59
2022/01/23 10:05:05;;;;;;;16.33;12.60;;;6.20;99.90;;;;;;5075538;28;20448;-59
2022/01/23 10:07:36;;;;;;;14.43;10.43;;;6.10;99.90;;;;;;5075948;28;20444;-58
2022/01/23 10:10:10;;;;;;;16.27;10.87;;;5.90;99.90;;;;;;5075829;28;20448;-58
2022/01/23 10:12:40;;;;;;;14.00;10.40;;;6.00;99.90;;;;;;5075909;28;20465;-59
2022/01/23 10:15:09;;;;;;;12.40;10.83;;;5.90;99.90;;;;;;5075386;28;20447;-59
2022/01/23 10:17:36;;;;;;;16.87;13.70;;;6.10;99.90;;;;;;5075969;28;20448;-59
2022/01/23 10:20:07;;;;;;;14.33;10.20;;;6.20;99.90;;;;;;5075205;28;20444;-58
2022/01/23 10:22:35;;;;;;;14.37;11.90;;;6.30;99.90;;;;;;5075138;28;20480;-58
2022/01/23 10:25:08;;;;;;;15.50;12.33;;;6.30;99.90;;;;;;5075393;28;20459;-59
2022/01/23 10:28:02;;;;;;;20.77;14.40;;;6.40;99.90;;;;;;5075662;28;20454;-59
2022/01/23 10:30:32;;;;;;;20.47;14.67;;;6.50;99.90;;;;;;5066110;28;20456;-59
2022/01/23 10:33:07;;;;;;;23.87;14.03;;;6.50;99.90;;;;;;5075592;28;20459;-60
2022/01/23 10:35:52;;;;;;;17.00;12.80;;;6.60;99.90;;;;;;5075058;28;20436;-59
2022/01/23 10:38:20;;;;;;;19.03;13.80;;;6.50;99.90;;;;;;5074231;28;20439;-59
2022/01/23 10:40:52;;;;;;;20.47;14.50;;;6.70;99.90;;;;;;5074962;28;20551;-59
2022/01/23 10:48:47;;;;;;;20.27;14.20;;;6.60;99.90;;;;;;5075161;28;20626;-58
2022/01/23 10:51:27;;;;;;;18.43;13.17;;;6.50;99.90;;;;;;5074741;28;20460;-59
2022/01/23 10:54:16;;;;;;;16.47;12.83;;;6.70;99.90;;;;;;5075030;28;20428;-59
2022/01/23 10:57:07;;;;;;;16.67;12.50;;;6.60;99.90;;;;;;5074682;28;20435;-59
2022/01/23 10:59:45;;;;;;;16.80;12.87;;;6.50;99.90;;;;;;5072469;28;20463;-59
2022/01/23 11:02:14;;;;;;;16.73;11.73;;;6.60;99.90;;;;;;5073340;28;20857;-59
2022/01/23 11:04:53;;;;;;;19.10;11.70;;;6.50;99.90;;;;;;5074408;28;20556;-59
2022/01/23 11:07:23;;;;;;;14.57;12.40;;;6.60;99.90;;;;;;5074473;28;20435;-59
2022/01/23 11:09:57;;;;;;;15.63;12.00;;;6.60;99.90;;;;;;5074593;28;20463;-59
2022/01/23 11:12:43;;;;;;;14.97;11.90;;;6.70;99.90;;;;;;5074675;28;20467;-59
2022/01/23 11:17:59;;;;;;;18.03;13.00;;;6.50;99.90;;;;;;5074608;28;20428;-59
2022/01/23 11:20:31;;;;;;;17.10;12.27;;;6.60;99.90;;;;;;5074517;28;20449;-59
2022/01/23 11:23:11;;;;;;;16.40;11.80;;;6.70;99.90;;;;;;5074185;28;20898;-58
2022/01/23 11:25:39;;;;;;;18.17;11.93;;;6.70;99.90;;;;;;5074596;28;20440;-58
2022/01/23 11:28:06;;;;;;;18.10;12.70;;;6.60;99.90;;;;;;5074617;28;20479;-59
2022/01/23 11:30:40;;;;;;;21.47;13.63;;;6.70;99.90;;;;;;5074025;28;20543;-58
2022/01/23 11:33:10;;;;;;;21.03;13.47;;;6.70;99.90;;;;;;5074242;28;20433;-58
2022/01/23 11:35:37;;;;;;;17.53;12.70;;;6.90;99.90;;;;;;5074696;28;20451;-58
2022/01/23 11:38:11;;;;;;;18.13;13.57;;;6.80;99.90;;;;;;5073849;28;20535;-59
2022/01/23 11:50:37;;;;;;;16.30;14.37;;;6.80;99.90;;;;;;5073812;28;20440;-58
2022/01/23 11:54:39;;;;;;;16.80;11.73;;;6.80;99.90;;;;;;5073769;28;20772;-59
2022/01/23 11:57:36;;;;;;;20.20;14.20;;;7.00;99.90;;;;;;5073944;28;20451;-59
2022/01/23 12:00:07;;;;;;;17.57;14.07;;;6.90;99.90;;;;;;5073333;28;20954;-58
2022/01/23 12:02:40;;;;;;;19.30;12.50;;;6.70;99.90;;;;;;5073283;28;20586;-59
2022/01/23 12:05:30;;;;;;;16.57;12.00;;;6.80;99.90;;;;;;5073649;28;20516;-59
2022/01/23 12:08:35;;;;;;;23.57;14.53;;;6.90;99.90;;;;;;5073323;28;20521;-59
2022/01/23 12:11:41;;;;;;;13.97;11.47;;;6.90;99.90;;;;;;5073467;28;20464;-58
2022/01/23 12:17:32;;;;;;;19.00;12.87;;;6.80;99.90;;;;;;5073307;28;20533;-59
2022/01/23 12:19:59;;;;;;;16.97;12.50;;;6.90;99.90;;;;;;5065994;28;20456;-59
2022/01/23 12:22:45;;;;;;;17.90;12.20;;;6.90;99.90;;;;;;5073026;28;20468;-59
2022/01/23 12:25:25;;;;;;;16.53;11.80;;;7.10;99.90;;;;;;5073125;28;20433;-59
2022/01/23 12:28:21;;;;;;;16.63;11.00;;;7.10;99.90;;;;;;5073369;28;20539;-59
2022/01/23 12:30:49;;;;;;;16.37;12.23;;;7.10;99.90;;;;;;5072635;28;20507;-58
2022/01/23 12:33:30;;;;;;;13.30;11.03;;;7.10;99.90;;;;;;5073164;28;20428;-59
2022/01/23 12:36:01;;;;;;;15.33;11.57;;;7.00;99.90;;;;;;5073474;28;20441;-58
2022/01/23 12:38:31;;;;;;;14.20;10.37;;;6.80;99.90;;;;;;5072911;28;20529;-59
2022/01/23 12:41:25;;;;;;;16.50;11.30;;;6.60;99.90;;;;;;5072521;28;20472;-59
2022/01/23 12:43:56;;;;;;;16.33;10.33;;;6.70;99.90;;;;;;5072398;28;20484;-58
2022/01/23 12:46:36;;;;;;;13.03;10.40;;;6.90;99.90;;;;;;5072654;28;20455;-58
2022/01/23 12:49:26;;;;;;;11.53;9.10;;;6.90;99.90;;;;;;5072563;28;20433;-59
2022/01/23 12:51:55;;;;;;;11.50;8.60;;;7.00;99.90;;;;;;5072482;28;20574;-59
2022/01/23 12:54:31;;;;;;;12.67;9.70;;;7.00;99.90;;;;;;5072941;28;20487;-59
2022/01/23 12:57:08;;;;;;;14.73;9.37;;;6.90;99.90;;;;;;5072923;28;20424;-59
2022/01/23 12:59:37;;;;;;;11.70;8.47;;;6.90;99.90;;;;;;5072460;28;20432;-59
2022/01/23 13:02:11;;;;;;;12.00;9.80;;;7.00;99.90;;;;;;5071477;28;20494;-58
2022/01/23 13:04:41;;;;;;;8.80;7.50;;;6.90;99.90;;;;;;5072365;28;20507;-58
2022/01/23 13:07:21;;;;;;;11.60;8.27;;;6.80;99.90;;;;;;5072651;28;20433;-58
2022/01/23 13:09:56;;;;;;;10.70;8.83;;;6.70;99.90;;;;;;5072599;28;20460;-58
2022/01/23 13:15:27;;;;;;;11.00;9.07;;;6.80;99.90;;;;;;5072338;28;20407;-58
2022/01/23 13:18:11;;;;;;;14.80;9.87;;;6.60;99.90;;;;;;5072568;28;20443;-58
2022/01/23 13:26:43;;;;;;;11.27;7.23;;;6.60;99.90;;;;;;5072489;28;20430;-58
2022/01/23 13:32:15;;;;;;;6.23;5.60;;;6.80;99.90;;;;;;5072516;28;20518;-61
2022/01/23 13:34:49;;;;;;;6.43;5.57;;;6.80;99.90;;;;;;5072535;28;20439;-59
2022/01/23 13:37:18;;;;;;;5.03;4.30;;;6.80;99.90;;;;;;5072002;28;20443;-59
2022/01/23 13:39:50;;;;;;;5.47;4.70;;;6.80;99.90;;;;;;5072567;28;20487;-59
2022/01/23 13:42:46;;;;;;;5.77;4.50;;;6.70;99.90;;;;;;5072070;28;20513;-58
2022/01/23 13:59:08;;;;;;;4.30;3.87;;;6.90;99.90;;;;;;5072017;28;20408;-59
2022/01/23 14:01:49;;;;;;;3.00;2.70;;;6.90;99.90;;;;;;5071624;28;20488;-58
2022/01/23 14:04:19;;;;;;;3.60;3.07;;;6.90;99.90;;;;;;5072098;28;20470;-58
2022/01/23 14:06:47;;;;;;;2.87;2.67;;;6.80;99.90;;;;;;5072200;28;20453;-58
2022/01/23 14:09:16;;;;;;;5.40;3.30;;;6.80;99.90;;;;;;5071784;28;20488;-58
2022/01/23 14:11:44;;;;;;;4.53;3.43;;;;;;;;;;5071732;28;20472;-59
2022/01/23 14:14:14;;;;;;;3.63;2.90;;;6.60;99.90;;;;;;5074187;28;20813;-59
2022/01/23 14:16:41;;;;;;;2.97;2.70;;;6.70;99.90;;;;;;5075578;28;20450;-58
2022/01/23 14:19:21;;;;;;;3.47;3.17;;;6.70;99.90;;;;;;5075587;28;20451;-59
2022/01/23 14:21:50;;;;;;;3.50;3.20;;;6.70;99.90;;;;;;5075571;28;20464;-58
2022/01/23 14:24:28;;;;;;;5.87;4.53;;;6.60;99.90;;;;;;5075392;28;20476;-58
2022/01/23 14:27:06;;;;;;;5.10;2.70;;;6.50;99.90;;;;;;5075508;28;20458;-58
2022/01/23 14:29:35;;;;;;;3.07;2.83;;;6.60;99.90;;;;;;5075727;28;20501;-60
2022/01/23 14:32:15;;;;;;;3.80;3.50;;;6.70;99.90;;;;;;5075207;28;20476;-57
2022/01/23 14:34:44;;;;;;;4.03;3.60;;;6.80;99.90;;;;;;5075400;28;20431;-57
2022/01/23 14:37:11;;;;;;;4.00;3.70;;;6.70;99.90;;;;;;5075272;28;20452;-57
2022/01/23 14:39:38;;;;;;;4.47;3.30;;;6.70;99.90;;;;;;5075105;28;20455;-57
2022/01/23 14:42:18;;;;;;;3.13;2.93;;;6.60;99.90;;;;;;5075264;28;20491;-59
2022/01/23 14:44:46;;;;;;;3.70;3.40;;;6.70;99.90;;;;;;5074887;28;20464;-58
2022/01/23 14:47:14;;;;;;;4.20;3.80;;;6.60;99.90;;;;;;5075033;28;20487;-58
2022/01/23 14:49:46;;;;;;;3.73;3.43;;;6.60;99.90;;;;;;5075074;28;20539;-58
2022/01/23 14:52:14;;;;;;;4.20;3.20;;;6.70;99.90;;;;;;5074694;28;21008;-59
2022/01/23 14:54:42;;;;;;;3.63;3.07;;;6.70;99.90;;;;;;5075030;28;20568;-58
2022/01/23 14:57:14;;;;;;;3.80;3.10;;;6.60;99.90;;;;;;5074785;28;20450;-58
2022/01/23 14:59:41;;;;;;;3.30;3.00;;;6.50;99.90;;;;;;5074805;28;20439;-58
2022/01/23 15:02:10;;;;;;;3.70;3.40;;;6.40;99.90;;;;;;5074651;28;20480;-58
2022/01/23 15:04:46;;;;;;;4.00;3.50;;;6.30;99.90;;;;;;5074710;28;20971;-59
2022/01/23 15:07:16;;;;;;;4.47;3.10;;;6.40;99.90;;;;;;5075055;28;20436;-58
2022/01/23 15:09:45;;;;;;;3.70;3.40;;;6.30;99.90;;;;;;5074859;28;20432;-58
2022/01/23 15:12:13;;;;;;;4.50;3.60;;;6.30;99.90;;;;;;5074581;28;20565;-59
2022/01/23 15:14:41;;;;;;;4.00;2.90;;;6.30;99.90;;;;;;5074902;28;20456;-59
2022/01/23 15:17:08;;;;;;;3.50;3.17;;;6.20;99.90;;;;;;5074577;28;20843;-58
2022/01/23 15:19:36;;;;;;;5.37;3.30;;;6.10;99.90;;;;;;5074628;28;20458;-58
2022/01/23 15:22:05;;;;;;;3.83;3.50;;;6.20;99.90;;;;;;5074257;28;20474;-58
2022/01/23 15:24:32;;;;;;;3.90;3.50;;;6.30;99.90;;;;;;5073941;28;20480;-59
2022/01/23 15:26:59;;;;;;;4.40;3.60;;;6.20;99.90;;;;;;5074427;28;20538;-59
2022/01/23 15:29:27;;;;;;;4.10;3.53;;;6.30;99.90;;;;;;5074281;28;20798;-59
2022/01/23 15:31:54;;;;;;;5.70;4.00;;;6.20;99.90;;;;;;5074432;28;20482;-58
2022/01/23 15:34:21;;;;;;;4.97;4.27;;;6.20;99.90;;;;;;5074369;28;20453;-58
2022/01/23 15:36:50;;;;;;;5.00;4.07;;;6.20;99.90;;;;;;5074276;28;20535;-59